sensor_id;sensor_type;location;lat;lon;timestamp;temperature;humidity
38428;DHT22;24211;49.980;19.776;2022-10-16T00:17:43;14.50;99.90
38428;DHT22;24211;49.980;19.776;2022-10-16T00:20:11;14.50;99.90
38428;DHT22;24211;49.980;19.776;2022-10-16T00:22:38;14.50;99.90
38428;DHT22;24211;49.980;19.776;2022-10-16T00:25:07;14.50;99.90
38428;DHT22;24211;49.980;19.776;2022-10-16T00:27:34;14.40;99.90
38428;DHT22;24211;49.980;19.776;2022-10-16T00:30:18;14.50;99.90
38428;DHT22;24211;49.980;19.776;2022-10-16T00:32:48;14.50;99.90
38428;DHT22;24211;49.980;19.776;2022-10-16T00:35:16;14.40;99.90
38428;DHT22;24211;49.980;19.776;2022-10-16T00:37:44;14.50;99.90
38428;DHT22;24211;49.980;19.776;2022-10-16T00:40:15;14.40;99.90
38428;DHT22;24211;49.980;19.776;2022-10-16T00:42:43;14.40;99.90
38428;DHT22;24211;49.980;19.776;2022-10-16T00:45:10;14.40;99.90
38428;DHT22;24211;49.980;19.776;2022-10-16T00:52:56;14.40;99.90
38428;DHT22;24211;49.980;19.776;2022-10-16T00:55:29;14.40;99.90
38428;DHT22;24211;49.980;19.776;2022-10-16T00:58:19;14.40;99.90
38428;DHT22;24211;49.980;19.776;2022-10-16T01:02:14;14.40;99.90
38428;DHT22;24211;49.980;19.776;2022-10-16T01:05:10;14.40;99.90
38428;DHT22;24211;49.980;19.776;2022-10-16T01:28:51;14.30;99.90
38428;DHT22;24211;49.980;19.776;2022-10-16T01:52:35;14.30;99.90
38428;DHT22;24211;49.980;19.776;2022-10-16T01:55:09;14.30;99.90
38428;DHT22;24211;49.980;19.776;2022-10-16T01:57:43;14.30;99.90
38428;DHT22;24211;49.980;19.776;2022-10-16T02:00:14;14.30;99.90
38428;DHT22;24211;49.980;19.776;2022-10-16T02:02:47;14.20;99.90
38428;DHT22;24211;49.980;19.776;2022-10-16T02:05:50;14.30;99.90
38428;DHT22;24211;49.980;19.776;2022-10-16T02:08:29;14.20;99.90
38428;DHT22;24211;49.980;19.776;2022-10-16T02:11:00;14.30;99.90
38428;DHT22;24211;49.980;19.776;2022-10-16T02:13:43;14.20;99.90
38428;DHT22;24211;49.980;19.776;2022-10-16T02:16:35;14.20;99.90
38428;DHT22;24211;49.980;19.776;2022-10-16T02:59:20;14.00;99.90
38428;DHT22;24211;49.980;19.776;2022-10-16T03:01:57;14.00;99.90
38428;DHT22;24211;49.980;19.776;2022-10-16T03:04:28;14.00;99.90
38428;DHT22;24211;49.980;19.776;2022-10-16T03:06:57;14.00;99.90
38428;DHT22;24211;49.980;19.776;2022-10-16T03:09:32;13.90;99.90
38428;DHT22;24211;49.980;19.776;2022-10-16T03:12:12;14.00;99.90
38428;DHT22;24211;49.980;19.776;2022-10-16T03:15:34;14.00;99.90
38428;DHT22;24211;49.980;19.776;2022-10-16T03:18:03;13.90;99.90
38428;DHT22;24211;49.980;19.776;2022-10-16T03:20:31;13.90;99.90
38428;DHT22;24211;49.980;19.776;2022-10-16T03:23:02;13.90;99.90
38428;DHT22;24211;49.980;19.776;2022-10-16T03:25:44;13.80;99.90
38428;DHT22;24211;49.980;19.776;2022-10-16T03:28:51;13.80;99.90
38428;DHT22;24211;49.980;19.776;2022-10-16T04:18:26;13.40;99.90
38428;DHT22;24211;49.980;19.776;2022-10-16T05:42:21;12.70;99.90
38428;DHT22;24211;49.980;19.776;2022-10-16T05:44:54;12.80;99.90
38428;DHT22;24211;49.980;19.776;2022-10-16T05:47:21;12.80;99.90
38428;DHT22;24211;49.980;19.776;2022-10-16T05:49:48;12.80;99.90
38428;DHT22;24211;49.980;19.776;2022-10-16T06:35:01;13.10;99.90
38428;DHT22;24211;49.980;19.776;2022-10-16T06:40:46;13.20;99.90
38428;DHT22;24211;49.980;19.776;2022-10-16T06:43:15;13.20;99.90
38428;DHT22;24211;49.980;19.776;2022-10-16T06:45:43;13.20;99.90
38428;DHT22;24211;49.980;19.776;2022-10-16T06:48:44;13.30;99.90
38428;DHT22;24211;49.980;19.776;2022-10-16T07:25:45;13.70;99.90
38428;DHT22;24211;49.980;19.776;2022-10-16T07:28:20;13.80;99.90
38428;DHT22;24211;49.980;19.776;2022-10-16T07:30:48;13.90;99.90
38428;DHT22;24211;49.980;19.776;2022-10-16T07:33:17;14.00;99.90
38428;DHT22;24211;49.980;19.776;2022-10-16T07:35:50;14.10;99.90
38428;DHT22;24211;49.980;19.776;2022-10-16T07:38:19;14.20;99.90
38428;DHT22;24211;49.980;19.776;2022-10-16T07:41:04;14.30;99.90
38428;DHT22;24211;49.980;19.776;2022-10-16T07:43:33;14.40;99.90
38428;DHT22;24211;49.980;19.776;2022-10-16T07:46:27;14.50;99.90
38428;DHT22;24211;49.980;19.776;2022-10-16T07:48:55;14.60;99.90
38428;DHT22;24211;49.980;19.776;2022-10-16T07:51:24;14.70;99.90
38428;DHT22;24211;49.980;19.776;2022-10-16T07:53:53;14.80;99.90
38428;DHT22;24211;49.980;19.776;2022-10-16T07:56:22;14.90;99.90
38428;DHT22;24211;49.980;19.776;2022-10-16T07:58:52;15.00;99.90
38428;DHT22;24211;49.980;19.776;2022-10-16T08:01:20;15.10;99.90
38428;DHT22;24211;49.980;19.776;2022-10-16T08:03:49;15.20;99.90
38428;DHT22;24211;49.980;19.776;2022-10-16T08:06:22;15.30;99.90
38428;DHT22;24211;49.980;19.776;2022-10-16T08:08:56;15.50;99.90
38428;DHT22;24211;49.980;19.776;2022-10-16T08:11:23;15.60;99.90
38428;DHT22;24211;49.980;19.776;2022-10-16T08:13:51;15.80;99.90
38428;DHT22;24211;49.980;19.776;2022-10-16T08:16:19;16.00;99.90
38428;DHT22;24211;49.980;19.776;2022-10-16T08:18:47;16.10;99.90
38428;DHT22;24211;49.980;19.776;2022-10-16T08:21:16;16.30;99.90
38428;DHT22;24211;49.980;19.776;2022-10-16T08:23:48;16.50;99.90
38428;DHT22;24211;49.980;19.776;2022-10-16T08:26:23;16.70;99.90
38428;DHT22;24211;49.980;19.776;2022-10-16T08:28:50;16.90;99.90
38428;DHT22;24211;49.980;19.776;2022-10-16T08:31:19;17.10;99.90
38428;DHT22;24211;49.980;19.776;2022-10-16T08:33:47;17.30;99.90
38428;DHT22;24211;49.980;19.776;2022-10-16T08:41:17;17.70;99.90
38428;DHT22;24211;49.980;19.776;2022-10-16T08:50:29;19.00;99.90
38428;DHT22;24211;49.980;19.776;2022-10-16T08:52:59;19.20;99.90
38428;DHT22;24211;49.980;19.776;2022-10-16T09:00:42;19.50;99.90
38428;DHT22;24211;49.980;19.776;2022-10-16T09:03:35;19.90;99.90
38428;DHT22;24211;49.980;19.776;2022-10-16T09:23:47;20.60;99.90
38428;DHT22;24211;49.980;19.776;2022-10-16T09:26:16;20.70;99.90
38428;DHT22;24211;49.980;19.776;2022-10-16T09:28:48;20.80;99.90
38428;DHT22;24211;49.980;19.776;2022-10-16T09:31:19;20.80;99.90
38428;DHT22;24211;49.980;19.776;2022-10-16T09:33:52;20.80;99.90
38428;DHT22;24211;49.980;19.776;2022-10-16T09:36:25;20.90;99.90
38428;DHT22;24211;49.980;19.776;2022-10-16T09:39:06;21.00;99.90
38428;DHT22;24211;49.980;19.776;2022-10-16T09:41:40;21.20;99.90
38428;DHT22;24211;49.980;19.776;2022-10-16T09:44:26;21.30;99.90
38428;DHT22;24211;49.980;19.776;2022-10-16T09:47:17;21.60;99.90
38428;DHT22;24211;49.980;19.776;2022-10-16T09:52:24;22.10;99.90
38428;DHT22;24211;49.980;19.776;2022-10-16T09:54:57;22.30;99.90
38428;DHT22;24211;49.980;19.776;2022-10-16T09:57:27;22.40;99.90
38428;DHT22;24211;49.980;19.776;2022-10-16T09:59:58;22.70;99.90
38428;DHT22;24211;49.980;19.776;2022-10-16T10:02:36;22.70;99.90
38428;DHT22;24211;49.980;19.776;2022-10-16T10:05:17;22.80;99.90
38428;DHT22;24211;49.980;19.776;2022-10-16T10:07:57;22.90;99.90
38428;DHT22;24211;49.980;19.776;2022-10-16T10:10:31;23.10;99.90
38428;DHT22;24211;49.980;19.776;2022-10-16T10:13:01;23.20;99.90
38428;DHT22;24211;49.980;19.776;2022-10-16T10:15:34;23.50;99.90
38428;DHT22;24211;49.980;19.776;2022-10-16T10:18:22;23.60;99.90
38428;DHT22;24211;49.980;19.776;2022-10-16T10:20:58;23.80;99.90
38428;DHT22;24211;49.980;19.776;2022-10-16T10:23:34;23.90;99.90
38428;DHT22;24211;49.980;19.776;2022-10-16T10:26:16;24.00;99.90
38428;DHT22;24211;49.980;19.776;2022-10-16T10:29:06;24.10;99.90
38428;DHT22;24211;49.980;19.776;2022-10-16T10:31:57;24.20;99.90
38428;DHT22;24211;49.980;19.776;2022-10-16T10:34:35;24.20;99.90
38428;DHT22;24211;49.980;19.776;2022-10-16T10:42:48;24.50;99.90
38428;DHT22;24211;49.980;19.776;2022-10-16T10:45:46;24.60;99.90
38428;DHT22;24211;49.980;19.776;2022-10-16T10:51:31;24.70;99.90
38428;DHT22;24211;49.980;19.776;2022-10-16T10:54:19;24.70;99.90
38428;DHT22;24211;49.980;19.776;2022-10-16T10:57:02;24.70;99.90
38428;DHT22;24211;49.980;19.776;2022-10-16T10:59:54;24.70;99.90
38428;DHT22;24211;49.980;19.776;2022-10-16T11:05:34;24.70;99.90
38428;DHT22;24211;49.980;19.776;2022-10-16T11:08:13;24.70;99.90
38428;DHT22;24211;49.980;19.776;2022-10-16T11:11:01;24.60;99.90
38428;DHT22;24211;49.980;19.776;2022-10-16T11:13:38;24.60;99.90
38428;DHT22;24211;49.980;19.776;2022-10-16T11:16:20;24.60;99.90
38428;DHT22;24211;49.980;19.776;2022-10-16T11:19:05;24.60;99.90
38428;DHT22;24211;49.980;19.776;2022-10-16T11:21:46;24.50;99.90
38428;DHT22;24211;49.980;19.776;2022-10-16T11:24:26;24.50;99.90
38428;DHT22;24211;49.980;19.776;2022-10-16T11:27:21;24.50;99.90
38428;DHT22;24211;49.980;19.776;2022-10-16T11:29:59;24.50;99.90
38428;DHT22;24211;49.980;19.776;2022-10-16T11:32:35;24.40;99.90
38428;DHT22;24211;49.980;19.776;2022-10-16T11:35:30;24.40;99.90
38428;DHT22;24211;49.980;19.776;2022-10-16T11:38:13;24.40;99.90
38428;DHT22;24211;49.980;19.776;2022-10-16T11:40:56;24.40;99.90
38428;DHT22;24211;49.980;19.776;2022-10-16T11:43:34;24.40;99.90
38428;DHT22;24211;49.980;19.776;2022-10-16T11:46:15;24.40;99.90
38428;DHT22;24211;49.980;19.776;2022-10-16T11:49:09;24.40;99.90
38428;DHT22;24211;49.980;19.776;2022-10-16T11:51:48;24.30;99.90
38428;DHT22;24211;49.980;19.776;2022-10-16T11:54:38;24.20;99.90
38428;DHT22;24211;49.980;19.776;2022-10-16T11:57:20;24.20;99.90
38428;DHT22;24211;49.980;19.776;2022-10-16T12:00:23;24.20;99.90
38428;DHT22;24211;49.980;19.776;2022-10-16T12:08:39;24.00;99.90
38428;DHT22;24211;49.980;19.776;2022-10-16T12:17:45;23.90;99.90
38428;DHT22;24211;49.980;19.776;2022-10-16T12:22:49;23.80;99.90
38428;DHT22;24211;49.980;19.776;2022-10-16T12:25:35;23.90;99.90
38428;DHT22;24211;49.980;19.776;2022-10-16T12:28:18;23.80;99.90
38428;DHT22;24211;49.980;19.776;2022-10-16T12:31:05;23.80;99.90
38428;DHT22;24211;49.980;19.776;2022-10-16T12:33:34;23.70;99.90
38428;DHT22;24211;49.980;19.776;2022-10-16T12:36:42;23.70;99.90
38428;DHT22;24211;49.980;19.776;2022-10-16T12:39:20;23.70;99.90
38428;DHT22;24211;49.980;19.776;2022-10-16T12:42:05;23.70;99.90
38428;DHT22;24211;49.980;19.776;2022-10-16T12:44:46;23.70;99.90
38428;DHT22;24211;49.980;19.776;2022-10-16T12:50:00;23.70;99.90
38428;DHT22;24211;49.980;19.776;2022-10-16T12:52:39;23.70;99.90
38428;DHT22;24211;49.980;19.776;2022-10-16T12:55:16;23.60;99.90
38428;DHT22;24211;49.980;19.776;2022-10-16T12:58:08;23.70;99.90
38428;DHT22;24211;49.980;19.776;2022-10-16T13:00:56;23.70;99.90
38428;DHT22;24211;49.980;19.776;2022-10-16T13:04:03;23.60;99.90
38428;DHT22;24211;49.980;19.776;2022-10-16T13:13:04;23.60;99.90
38428;DHT22;24211;49.980;19.776;2022-10-16T13:15:57;23.60;99.90
38428;DHT22;24211;49.980;19.776;2022-10-16T13:18:39;23.60;99.90
38428;DHT22;24211;49.980;19.776;2022-10-16T13:21:54;23.60;99.90
38428;DHT22;24211;49.980;19.776;2022-10-16T13:28:02;23.50;99.90
38428;DHT22;24211;49.980;19.776;2022-10-16T13:30:44;23.50;99.90
38428;DHT22;24211;49.980;19.776;2022-10-16T13:33:39;23.40;99.90
38428;DHT22;24211;49.980;19.776;2022-10-16T13:36:23;23.40;99.90
38428;DHT22;24211;49.980;19.776;2022-10-16T13:39:14;23.40;99.90
38428;DHT22;24211;49.980;19.776;2022-10-16T13:42:10;23.30;99.90
38428;DHT22;24211;49.980;19.776;2022-10-16T13:44:44;23.30;99.90
38428;DHT22;24211;49.980;19.776;2022-10-16T13:47:25;23.30;99.90
38428;DHT22;24211;49.980;19.776;2022-10-16T13:50:17;23.30;99.90
38428;DHT22;24211;49.980;19.776;2022-10-16T13:52:45;23.30;99.90
38428;DHT22;24211;49.980;19.776;2022-10-16T13:55:14;23.30;99.90
38428;DHT22;24211;49.980;19.776;2022-10-16T13:57:43;23.30;99.90
38428;DHT22;24211;49.980;19.776;2022-10-16T14:00:19;23.20;99.90
38428;DHT22;24211;49.980;19.776;2022-10-16T14:02:55;23.20;99.90
38428;DHT22;24211;49.980;19.776;2022-10-16T14:05:29;23.20;99.90
38428;DHT22;24211;49.980;19.776;2022-10-16T14:07:58;23.20;99.90
38428;DHT22;24211;49.980;19.776;2022-10-16T14:10:29;23.10;99.90
38428;DHT22;24211;49.980;19.776;2022-10-16T14:13:02;23.10;99.90
38428;DHT22;24211;49.980;19.776;2022-10-16T14:15:32;23.00;99.90
38428;DHT22;24211;49.980;19.776;2022-10-16T14:18:02;22.90;99.90
38428;DHT22;24211;49.980;19.776;2022-10-16T14:20:33;22.90;99.90
38428;DHT22;24211;49.980;19.776;2022-10-16T14:26:12;22.80;99.90
38428;DHT22;24211;49.980;19.776;2022-10-16T14:28:42;22.80;99.90
38428;DHT22;24211;49.980;19.776;2022-10-16T14:31:27;22.70;99.90
38428;DHT22;24211;49.980;19.776;2022-10-16T14:33:56;22.70;99.90
38428;DHT22;24211;49.980;19.776;2022-10-16T14:36:27;22.70;99.90
38428;DHT22;24211;49.980;19.776;2022-10-16T14:39:06;22.60;99.90
38428;DHT22;24211;49.980;19.776;2022-10-16T14:41:47;22.60;99.90
38428;DHT22;24211;49.980;19.776;2022-10-16T14:44:26;22.60;99.90
38428;DHT22;24211;49.980;19.776;2022-10-16T14:46:57;22.50;99.90
38428;DHT22;24211;49.980;19.776;2022-10-16T14:49:27;22.50;99.90
38428;DHT22;24211;49.980;19.776;2022-10-16T14:51:55;22.50;99.90
38428;DHT22;24211;49.980;19.776;2022-10-16T14:54:25;22.50;99.90
38428;DHT22;24211;49.980;19.776;2022-10-16T14:56:57;22.40;99.90
38428;DHT22;24211;49.980;19.776;2022-10-16T14:59:32;22.30;99.90
38428;DHT22;24211;49.980;19.776;2022-10-16T15:04:51;22.20;99.90
38428;DHT22;24211;49.980;19.776;2022-10-16T15:07:18;22.10;99.90
38428;DHT22;24211;49.980;19.776;2022-10-16T15:09:46;22.10;99.90
38428;DHT22;24211;49.980;19.776;2022-10-16T15:12:18;22.00;99.90
38428;DHT22;24211;49.980;19.776;2022-10-16T15:14:46;21.90;99.90
38428;DHT22;24211;49.980;19.776;2022-10-16T15:17:13;21.80;99.90
38428;DHT22;24211;49.980;19.776;2022-10-16T15:19:45;21.80;99.90
38428;DHT22;24211;49.980;19.776;2022-10-16T15:22:13;21.80;99.90
38428;DHT22;24211;49.980;19.776;2022-10-16T15:24:40;21.70;99.90
38428;DHT22;24211;49.980;19.776;2022-10-16T15:27:08;21.60;99.90
38428;DHT22;24211;49.980;19.776;2022-10-16T15:29:35;21.60;99.90
38428;DHT22;24211;49.980;19.776;2022-10-16T15:32:02;21.50;99.90
38428;DHT22;24211;49.980;19.776;2022-10-16T15:34:30;21.50;99.90
38428;DHT22;24211;49.980;19.776;2022-10-16T15:36:57;21.40;99.90
38428;DHT22;24211;49.980;19.776;2022-10-16T15:39:27;21.40;99.90
38428;DHT22;24211;49.980;19.776;2022-10-16T15:42:07;21.30;99.90
38428;DHT22;24211;49.980;19.776;2022-10-16T15:44:34;21.20;99.90
38428;DHT22;24211;49.980;19.776;2022-10-16T15:47:02;21.20;99.90
38428;DHT22;24211;49.980;19.776;2022-10-16T15:49:49;21.10;99.90
38428;DHT22;24211;49.980;19.776;2022-10-16T15:52:24;21.10;99.90
38428;DHT22;24211;49.980;19.776;2022-10-16T15:54:58;21.00;99.90
38428;DHT22;24211;49.980;19.776;2022-10-16T15:57:28;20.90;99.90
38428;DHT22;24211;49.980;19.776;2022-10-16T15:59:56;20.90;99.90
38428;DHT22;24211;49.980;19.776;2022-10-16T16:02:24;20.80;99.90
38428;DHT22;24211;49.980;19.776;2022-10-16T16:10:24;20.70;99.90
38428;DHT22;24211;49.980;19.776;2022-10-16T16:27:04;20.30;99.90
38428;DHT22;24211;49.980;19.776;2022-10-16T16:29:33;20.20;99.90
38428;DHT22;24211;49.980;19.776;2022-10-16T16:32:02;20.10;99.90
38428;DHT22;24211;49.980;19.776;2022-10-16T16:34:29;20.00;99.90
38428;DHT22;24211;49.980;19.776;2022-10-16T16:36:57;20.00;99.90
38428;DHT22;24211;49.980;19.776;2022-10-16T16:40:01;19.90;99.90
38428;DHT22;24211;49.980;19.776;2022-10-16T16:48:24;19.80;99.90
38428;DHT22;24211;49.980;19.776;2022-10-16T16:50:52;19.60;99.90
38428;DHT22;24211;49.980;19.776;2022-10-16T16:53:20;19.60;99.90
38428;DHT22;24211;49.980;19.776;2022-10-16T16:55:48;19.50;99.90
38428;DHT22;24211;49.980;19.776;2022-10-16T16:58:17;19.50;99.90
38428;DHT22;24211;49.980;19.776;2022-10-16T17:00:47;19.40;99.90
38428;DHT22;24211;49.980;19.776;2022-10-16T17:03:24;19.40;99.90
38428;DHT22;24211;49.980;19.776;2022-10-16T17:08:26;19.30;99.90
38428;DHT22;24211;49.980;19.776;2022-10-16T17:10:53;19.20;99.90
38428;DHT22;24211;49.980;19.776;2022-10-16T17:13:23;19.20;99.90
38428;DHT22;24211;49.980;19.776;2022-10-16T17:15:52;19.10;99.90
38428;DHT22;24211;49.980;19.776;2022-10-16T17:18:22;19.10;99.90
38428;DHT22;24211;49.980;19.776;2022-10-16T17:20:51;19.00;99.90
38428;DHT22;24211;49.980;19.776;2022-10-16T17:23:19;18.90;99.90
38428;DHT22;24211;49.980;19.776;2022-10-16T17:25:46;18.80;99.90
38428;DHT22;24211;49.980;19.776;2022-10-16T17:28:14;18.80;99.90
38428;DHT22;24211;49.980;19.776;2022-10-16T17:30:42;18.70;99.90
38428;DHT22;24211;49.980;19.776;2022-10-16T17:33:11;18.70;99.90
38428;DHT22;24211;49.980;19.776;2022-10-16T17:35:45;18.70;99.90
38428;DHT22;24211;49.980;19.776;2022-10-16T17:38:14;18.60;99.90
38428;DHT22;24211;49.980;19.776;2022-10-16T17:40:43;18.60;99.90
38428;DHT22;24211;49.980;19.776;2022-10-16T17:43:10;18.60;99.90
38428;DHT22;24211;49.980;19.776;2022-10-16T17:45:38;18.50;99.90
38428;DHT22;24211;49.980;19.776;2022-10-16T17:48:05;18.50;99.90
38428;DHT22;24211;49.980;19.776;2022-10-16T17:50:32;18.40;99.90
38428;DHT22;24211;49.980;19.776;2022-10-16T17:53:00;18.40;99.90
38428;DHT22;24211;49.980;19.776;2022-10-16T17:55:27;18.30;99.90
38428;DHT22;24211;49.980;19.776;2022-10-16T17:57:56;18.30;99.90
38428;DHT22;24211;49.980;19.776;2022-10-16T18:00:23;18.30;99.90
38428;DHT22;24211;49.980;19.776;2022-10-16T18:02:51;18.20;99.90
38428;DHT22;24211;49.980;19.776;2022-10-16T18:05:19;18.10;99.90
38428;DHT22;24211;49.980;19.776;2022-10-16T18:07:47;18.10;99.90
38428;DHT22;24211;49.980;19.776;2022-10-16T18:10:14;18.00;99.90
38428;DHT22;24211;49.980;19.776;2022-10-16T18:12:46;18.00;99.90
38428;DHT22;24211;49.980;19.776;2022-10-16T18:15:14;17.90;99.90
38428;DHT22;24211;49.980;19.776;2022-10-16T18:17:42;17.90;99.90
38428;DHT22;24211;49.980;19.776;2022-10-16T18:20:10;17.80;99.90
38428;DHT22;24211;49.980;19.776;2022-10-16T18:22:38;17.80;99.90
38428;DHT22;24211;49.980;19.776;2022-10-16T18:25:06;17.70;99.90
38428;DHT22;24211;49.980;19.776;2022-10-16T18:27:35;17.70;99.90
38428;DHT22;24211;49.980;19.776;2022-10-16T18:30:05;17.60;99.90
38428;DHT22;24211;49.980;19.776;2022-10-16T18:32:33;17.60;99.90
38428;DHT22;24211;49.980;19.776;2022-10-16T18:35:04;17.50;99.90
38428;DHT22;24211;49.980;19.776;2022-10-16T18:37:36;17.50;99.90
38428;DHT22;24211;49.980;19.776;2022-10-16T18:40:29;17.50;99.90
38428;DHT22;24211;49.980;19.776;2022-10-16T18:43:04;17.40;99.90
38428;DHT22;24211;49.980;19.776;2022-10-16T18:45:32;17.40;99.90
38428;DHT22;24211;49.980;19.776;2022-10-16T18:48:03;17.30;99.90
38428;DHT22;24211;49.980;19.776;2022-10-16T18:50:34;17.30;99.90
38428;DHT22;24211;49.980;19.776;2022-10-16T18:53:03;17.30;99.90
38428;DHT22;24211;49.980;19.776;2022-10-16T18:55:34;17.20;99.90
38428;DHT22;24211;49.980;19.776;2022-10-16T18:58:05;17.10;99.90
38428;DHT22;24211;49.980;19.776;2022-10-16T19:00:33;17.00;99.90
38428;DHT22;24211;49.980;19.776;2022-10-16T19:03:12;17.00;99.90
38428;DHT22;24211;49.980;19.776;2022-10-16T19:05:42;17.00;99.90
38428;DHT22;24211;49.980;19.776;2022-10-16T19:08:16;16.90;99.90
38428;DHT22;24211;49.980;19.776;2022-10-16T19:10:45;16.90;99.90
38428;DHT22;24211;49.980;19.776;2022-10-16T19:13:13;16.90;99.90
38428;DHT22;24211;49.980;19.776;2022-10-16T19:15:45;16.80;99.90
38428;DHT22;24211;49.980;19.776;2022-10-16T19:18:30;16.80;99.90
38428;DHT22;24211;49.980;19.776;2022-10-16T20:33:03;15.60;99.90
